SASA/SLA METAR and TAF weather

Enter ICAO airport designator
Station Type Date Time Source
SASA METAR 2020/12/01 22:00 UTC NOAA

SASA 012200Z 02008KT 9999 FEW020 SCT025 23/16 Q1011


Station Type Date Time Source
SASA Decoded METAR 2020/12/01 22:00 UTC NOAA

Salta Aerodrome, Argentina (SASA) 24-51S 065-29W 1221M
Dec 01, 2020 - 05:00 PM EST / 2020.12.01 2200 UTC
Wind: from the NNE (020 degrees) at 9 MPH (8 KT):0
Visibility: greater than 7 mile(s):0
Sky conditions: partly cloudy
Temperature: 73 F (23 C)
Dew Point: 60 F (16 C)
Relative Humidity: 64%
Pressure (altimeter): 29.85 in. Hg (1011 hPa)
ob: SASA 012200Z 02008KT 9999 FEW020 SCT025 23/16 Q1011
cycle: 22

Station Type Date Time Source
SASA TAF 2020/12/01 18:03 UTC NOAA

TAF SASA 011700Z 0118/0218 02005KT 9999 SCT015 OVC030 TX25/0218Z TN16/0210Z
TEMPO 0120/0122 VCSH SCT020 FEW035CB
BECMG 0208/0210 VRB02KT 0800 FG BKN008
BECMG 0212/0215 23005KT 9999 NSW SCT030

Example: see airport list